sensor_id;sensor_type;location;lat;lon;timestamp;temperature;humidity
22202;DHT22;11266;51.522;6.302;2023-06-05T00:00:42;15.30;99.90
22202;DHT22;11266;51.522;6.302;2023-06-05T00:01:27;15.40;99.90
22202;DHT22;11266;51.522;6.302;2023-06-05T00:02:13;15.30;99.90
22202;DHT22;11266;51.522;6.302;2023-06-05T00:02:59;15.30;99.90
22202;DHT22;11266;51.522;6.302;2023-06-05T00:03:45;15.30;99.90
22202;DHT22;11266;51.522;6.302;2023-06-05T00:04:30;15.30;99.90
22202;DHT22;11266;51.522;6.302;2023-06-05T00:05:16;15.30;99.90
22202;DHT22;11266;51.522;6.302;2023-06-05T00:06:03;15.30;99.90
22202;DHT22;11266;51.522;6.302;2023-06-05T00:06:50;15.20;99.90
22202;DHT22;11266;51.522;6.302;2023-06-05T00:07:38;15.20;99.90
22202;DHT22;11266;51.522;6.302;2023-06-05T00:08:24;15.30;99.90
22202;DHT22;11266;51.522;6.302;2023-06-05T00:09:10;15.30;99.90
22202;DHT22;11266;51.522;6.302;2023-06-05T00:09:56;15.20;99.90
22202;DHT22;11266;51.522;6.302;2023-06-05T00:10:41;15.20;99.90
22202;DHT22;11266;51.522;6.302;2023-06-05T00:11:27;15.10;99.90
22202;DHT22;11266;51.522;6.302;2023-06-05T00:12:13;15.10;99.90
22202;DHT22;11266;51.522;6.302;2023-06-05T00:12:59;15.10;99.90
22202;DHT22;11266;51.522;6.302;2023-06-05T00:13:44;15.10;99.90
22202;DHT22;11266;51.522;6.302;2023-06-05T00:14:31;15.10;99.90
22202;DHT22;11266;51.522;6.302;2023-06-05T00:15:17;15.10;99.90
22202;DHT22;11266;51.522;6.302;2023-06-05T00:16:03;15.10;99.90
22202;DHT22;11266;51.522;6.302;2023-06-05T00:16:48;15.10;99.90
22202;DHT22;11266;51.522;6.302;2023-06-05T00:17:37;15.10;99.90
22202;DHT22;11266;51.522;6.302;2023-06-05T00:18:23;15.10;99.90
22202;DHT22;11266;51.522;6.302;2023-06-05T00:19:10;15.10;99.90
22202;DHT22;11266;51.522;6.302;2023-06-05T00:19:56;15.00;99.90
22202;DHT22;11266;51.522;6.302;2023-06-05T00:20:44;15.00;99.90
22202;DHT22;11266;51.522;6.302;2023-06-05T00:21:30;15.00;99.90
22202;DHT22;11266;51.522;6.302;2023-06-05T00:22:15;15.00;99.90
22202;DHT22;11266;51.522;6.302;2023-06-05T00:23:01;15.00;99.90
22202;DHT22;11266;51.522;6.302;2023-06-05T00:23:47;15.00;99.90
22202;DHT22;11266;51.522;6.302;2023-06-05T00:24:33;15.00;99.90
22202;DHT22;11266;51.522;6.302;2023-06-05T00:25:18;15.00;99.90
22202;DHT22;11266;51.522;6.302;2023-06-05T00:26:05;14.90;99.90
22202;DHT22;11266;51.522;6.302;2023-06-05T00:26:50;14.90;99.90
22202;DHT22;11266;51.522;6.302;2023-06-05T00:27:36;14.90;99.90
22202;DHT22;11266;51.522;6.302;2023-06-05T00:28:22;14.90;99.90
22202;DHT22;11266;51.522;6.302;2023-06-05T00:29:09;14.80;99.90
22202;DHT22;11266;51.522;6.302;2023-06-05T00:29:55;14.80;99.90
22202;DHT22;11266;51.522;6.302;2023-06-05T00:30:41;14.80;99.90
22202;DHT22;11266;51.522;6.302;2023-06-05T00:31:27;14.70;99.90
22202;DHT22;11266;51.522;6.302;2023-06-05T00:32:13;14.80;99.90
22202;DHT22;11266;51.522;6.302;2023-06-05T00:32:59;14.80;99.90
22202;DHT22;11266;51.522;6.302;2023-06-05T00:33:45;14.80;99.90
22202;DHT22;11266;51.522;6.302;2023-06-05T00:34:31;14.80;99.90
22202;DHT22;11266;51.522;6.302;2023-06-05T00:35:16;14.80;99.90
22202;DHT22;11266;51.522;6.302;2023-06-05T00:36:02;14.70;99.90
22202;DHT22;11266;51.522;6.302;2023-06-05T00:36:48;14.70;99.90
22202;DHT22;11266;51.522;6.302;2023-06-05T00:37:36;14.70;99.90
22202;DHT22;11266;51.522;6.302;2023-06-05T00:38:25;14.70;99.90
22202;DHT22;11266;51.522;6.302;2023-06-05T00:39:11;14.70;99.90
22202;DHT22;11266;51.522;6.302;2023-06-05T00:39:57;14.60;99.90
22202;DHT22;11266;51.522;6.302;2023-06-05T00:40:43;14.70;99.90
22202;DHT22;11266;51.522;6.302;2023-06-05T00:41:28;14.70;99.90
22202;DHT22;11266;51.522;6.302;2023-06-05T00:42:14;14.70;99.90
22202;DHT22;11266;51.522;6.302;2023-06-05T00:43:00;14.60;99.90
22202;DHT22;11266;51.522;6.302;2023-06-05T00:43:47;14.60;99.90
22202;DHT22;11266;51.522;6.302;2023-06-05T00:44:33;14.60;99.90
22202;DHT22;11266;51.522;6.302;2023-06-05T00:45:18;14.60;99.90
22202;DHT22;11266;51.522;6.302;2023-06-05T00:46:04;14.60;99.90
22202;DHT22;11266;51.522;6.302;2023-06-05T00:46:52;14.60;99.90
22202;DHT22;11266;51.522;6.302;2023-06-05T00:47:38;14.60;99.90
22202;DHT22;11266;51.522;6.302;2023-06-05T00:48:24;14.60;99.90
22202;DHT22;11266;51.522;6.302;2023-06-05T00:49:11;14.60;99.90
22202;DHT22;11266;51.522;6.302;2023-06-05T00:49:59;14.60;99.90
22202;DHT22;11266;51.522;6.302;2023-06-05T00:50:45;14.50;99.90
22202;DHT22;11266;51.522;6.302;2023-06-05T00:51:30;14.50;99.90
22202;DHT22;11266;51.522;6.302;2023-06-05T00:52:16;14.50;99.90
22202;DHT22;11266;51.522;6.302;2023-06-05T00:53:04;14.50;99.90
22202;DHT22;11266;51.522;6.302;2023-06-05T00:53:51;14.40;99.90
22202;DHT22;11266;51.522;6.302;2023-06-05T00:54:37;14.40;99.90
22202;DHT22;11266;51.522;6.302;2023-06-05T00:55:23;14.40;99.90
22202;DHT22;11266;51.522;6.302;2023-06-05T00:56:10;14.40;99.90
22202;DHT22;11266;51.522;6.302;2023-06-05T00:56:56;14.40;99.90
22202;DHT22;11266;51.522;6.302;2023-06-05T00:57:43;14.40;99.90
22202;DHT22;11266;51.522;6.302;2023-06-05T00:58:30;14.40;99.90
22202;DHT22;11266;51.522;6.302;2023-06-05T00:59:17;14.40;99.90
22202;DHT22;11266;51.522;6.302;2023-06-05T01:00:03;14.50;99.90
22202;DHT22;11266;51.522;6.302;2023-06-05T01:00:52;14.40;99.90
22202;DHT22;11266;51.522;6.302;2023-06-05T01:01:39;14.40;99.90
22202;DHT22;11266;51.522;6.302;2023-06-05T01:02:26;14.40;99.90
22202;DHT22;11266;51.522;6.302;2023-06-05T01:03:12;14.40;99.90
22202;DHT22;11266;51.522;6.302;2023-06-05T01:03:58;14.40;99.90
22202;DHT22;11266;51.522;6.302;2023-06-05T01:04:44;14.40;99.90
22202;DHT22;11266;51.522;6.302;2023-06-05T01:05:30;14.40;99.90
22202;DHT22;11266;51.522;6.302;2023-06-05T01:06:15;14.30;99.90
22202;DHT22;11266;51.522;6.302;2023-06-05T01:07:03;14.30;99.90
22202;DHT22;11266;51.522;6.302;2023-06-05T01:07:49;14.30;99.90
22202;DHT22;11266;51.522;6.302;2023-06-05T01:08:35;14.30;99.90
22202;DHT22;11266;51.522;6.302;2023-06-05T01:09:25;14.30;99.90
22202;DHT22;11266;51.522;6.302;2023-06-05T01:10:11;14.20;99.90
22202;DHT22;11266;51.522;6.302;2023-06-05T01:11:00;14.20;99.90
22202;DHT22;11266;51.522;6.302;2023-06-05T01:11:53;14.30;99.90
22202;DHT22;11266;51.522;6.302;2023-06-05T01:14:00;14.20;99.90
22202;DHT22;11266;51.522;6.302;2023-06-05T01:14:48;14.20;99.90
22202;DHT22;11266;51.522;6.302;2023-06-05T01:15:36;14.20;99.90
22202;DHT22;11266;51.522;6.302;2023-06-05T01:16:22;14.20;99.90
22202;DHT22;11266;51.522;6.302;2023-06-05T01:17:17;14.20;99.90
22202;DHT22;11266;51.522;6.302;2023-06-05T01:18:06;14.20;99.90
22202;DHT22;11266;51.522;6.302;2023-06-05T01:18:52;14.10;99.90
22202;DHT22;11266;51.522;6.302;2023-06-05T01:19:38;14.10;99.90
22202;DHT22;11266;51.522;6.302;2023-06-05T01:20:38;14.10;99.90
22202;DHT22;11266;51.522;6.302;2023-06-05T01:21:24;14.10;99.90
22202;DHT22;11266;51.522;6.302;2023-06-05T01:22:10;14.10;99.90
22202;DHT22;11266;51.522;6.302;2023-06-05T01:22:58;14.10;99.90
22202;DHT22;11266;51.522;6.302;2023-06-05T01:23:43;14.10;99.90
22202;DHT22;11266;51.522;6.302;2023-06-05T01:24:30;14.10;99.90
22202;DHT22;11266;51.522;6.302;2023-06-05T01:25:16;14.10;99.90
22202;DHT22;11266;51.522;6.302;2023-06-05T01:26:06;14.10;99.90
22202;DHT22;11266;51.522;6.302;2023-06-05T01:28:00;14.10;99.90
22202;DHT22;11266;51.522;6.302;2023-06-05T01:28:49;14.10;99.90
22202;DHT22;11266;51.522;6.302;2023-06-05T01:30:54;14.10;99.90
22202;DHT22;11266;51.522;6.302;2023-06-05T01:31:47;14.00;99.90
22202;DHT22;11266;51.522;6.302;2023-06-05T01:33:39;14.00;99.90
22202;DHT22;11266;51.522;6.302;2023-06-05T01:34:27;13.90;99.90
22202;DHT22;11266;51.522;6.302;2023-06-05T01:35:14;13.90;99.90
22202;DHT22;11266;51.522;6.302;2023-06-05T01:36:03;13.90;99.90
22202;DHT22;11266;51.522;6.302;2023-06-05T01:36:50;13.80;99.90
22202;DHT22;11266;51.522;6.302;2023-06-05T01:37:40;13.80;99.90
22202;DHT22;11266;51.522;6.302;2023-06-05T01:38:33;13.80;99.90
22202;DHT22;11266;51.522;6.302;2023-06-05T01:39:22;13.90;99.90
22202;DHT22;11266;51.522;6.302;2023-06-05T01:40:13;13.90;99.90
22202;DHT22;11266;51.522;6.302;2023-06-05T01:41:03;13.90;99.90
22202;DHT22;11266;51.522;6.302;2023-06-05T01:41:50;13.80;99.90
22202;DHT22;11266;51.522;6.302;2023-06-05T01:42:38;13.80;99.90
22202;DHT22;11266;51.522;6.302;2023-06-05T01:43:25;13.80;99.90
22202;DHT22;11266;51.522;6.302;2023-06-05T01:44:13;13.80;99.90
22202;DHT22;11266;51.522;6.302;2023-06-05T01:45:05;13.80;99.90
22202;DHT22;11266;51.522;6.302;2023-06-05T01:45:51;13.80;99.90
22202;DHT22;11266;51.522;6.302;2023-06-05T01:46:38;13.70;99.90
22202;DHT22;11266;51.522;6.302;2023-06-05T01:47:24;13.70;99.90
22202;DHT22;11266;51.522;6.302;2023-06-05T01:48:10;13.60;99.90
22202;DHT22;11266;51.522;6.302;2023-06-05T01:48:56;13.70;99.90
22202;DHT22;11266;51.522;6.302;2023-06-05T01:49:45;13.70;99.90
22202;DHT22;11266;51.522;6.302;2023-06-05T01:50:35;13.60;99.90
22202;DHT22;11266;51.522;6.302;2023-06-05T01:51:21;13.60;99.90
22202;DHT22;11266;51.522;6.302;2023-06-05T01:52:07;13.70;99.90
22202;DHT22;11266;51.522;6.302;2023-06-05T01:52:53;13.70;99.90
22202;DHT22;11266;51.522;6.302;2023-06-05T01:53:39;13.60;99.90
22202;DHT22;11266;51.522;6.302;2023-06-05T01:54:25;13.60;99.90
22202;DHT22;11266;51.522;6.302;2023-06-05T01:55:22;13.60;99.90
22202;DHT22;11266;51.522;6.302;2023-06-05T01:56:12;13.60;99.90
22202;DHT22;11266;51.522;6.302;2023-06-05T01:56:58;13.60;99.90
22202;DHT22;11266;51.522;6.302;2023-06-05T01:57:45;13.50;99.90
22202;DHT22;11266;51.522;6.302;2023-06-05T01:58:31;13.50;99.90
22202;DHT22;11266;51.522;6.302;2023-06-05T01:59:17;13.50;99.90
22202;DHT22;11266;51.522;6.302;2023-06-05T02:00:03;13.50;99.90
22202;DHT22;11266;51.522;6.302;2023-06-05T02:00:54;13.50;99.90
22202;DHT22;11266;51.522;6.302;2023-06-05T02:01:42;13.50;99.90
22202;DHT22;11266;51.522;6.302;2023-06-05T02:02:29;13.50;99.90
22202;DHT22;11266;51.522;6.302;2023-06-05T02:03:15;13.50;99.90
22202;DHT22;11266;51.522;6.302;2023-06-05T02:04:02;13.40;99.90
22202;DHT22;11266;51.522;6.302;2023-06-05T02:04:51;13.40;99.90
22202;DHT22;11266;51.522;6.302;2023-06-05T02:05:39;13.50;99.90
22202;DHT22;11266;51.522;6.302;2023-06-05T02:06:25;13.40;99.90
22202;DHT22;11266;51.522;6.302;2023-06-05T02:07:12;13.40;99.90
22202;DHT22;11266;51.522;6.302;2023-06-05T02:08:00;13.50;99.90
22202;DHT22;11266;51.522;6.302;2023-06-05T02:08:50;13.40;99.90
22202;DHT22;11266;51.522;6.302;2023-06-05T02:09:36;13.40;99.90
22202;DHT22;11266;51.522;6.302;2023-06-05T02:10:22;13.40;99.90
22202;DHT22;11266;51.522;6.302;2023-06-05T02:11:09;13.40;99.90
22202;DHT22;11266;51.522;6.302;2023-06-05T02:11:55;13.40;99.90
22202;DHT22;11266;51.522;6.302;2023-06-05T02:12:41;13.40;99.90
22202;DHT22;11266;51.522;6.302;2023-06-05T02:13:27;13.40;99.90
22202;DHT22;11266;51.522;6.302;2023-06-05T02:14:13;13.40;99.90
22202;DHT22;11266;51.522;6.302;2023-06-05T02:15:01;13.40;99.90
22202;DHT22;11266;51.522;6.302;2023-06-05T02:15:47;13.30;99.90
22202;DHT22;11266;51.522;6.302;2023-06-05T02:16:32;13.40;99.90
22202;DHT22;11266;51.522;6.302;2023-06-05T02:17:19;13.30;99.90
22202;DHT22;11266;51.522;6.302;2023-06-05T02:18:06;13.30;99.90
22202;DHT22;11266;51.522;6.302;2023-06-05T02:18:53;13.40;99.90
22202;DHT22;11266;51.522;6.302;2023-06-05T02:19:42;13.30;99.90
22202;DHT22;11266;51.522;6.302;2023-06-05T02:20:28;13.30;99.90
22202;DHT22;11266;51.522;6.302;2023-06-05T02:21:14;13.30;99.90
22202;DHT22;11266;51.522;6.302;2023-06-05T02:22:01;13.30;99.90
22202;DHT22;11266;51.522;6.302;2023-06-05T02:22:47;13.30;99.90
22202;DHT22;11266;51.522;6.302;2023-06-05T02:23:37;13.30;99.90
22202;DHT22;11266;51.522;6.302;2023-06-05T02:24:23;13.40;99.90
22202;DHT22;11266;51.522;6.302;2023-06-05T02:25:09;13.40;99.90
22202;DHT22;11266;51.522;6.302;2023-06-05T02:25:58;13.40;99.90
22202;DHT22;11266;51.522;6.302;2023-06-05T02:26:45;13.40;99.90
22202;DHT22;11266;51.522;6.302;2023-06-05T02:27:30;13.40;99.90
22202;DHT22;11266;51.522;6.302;2023-06-05T02:28:16;13.30;99.90
22202;DHT22;11266;51.522;6.302;2023-06-05T02:29:02;13.30;99.90
22202;DHT22;11266;51.522;6.302;2023-06-05T02:29:48;13.30;99.90
22202;DHT22;11266;51.522;6.302;2023-06-05T02:30:34;13.30;99.90
22202;DHT22;11266;51.522;6.302;2023-06-05T02:31:21;13.30;99.90
22202;DHT22;11266;51.522;6.302;2023-06-05T02:32:09;13.30;99.90
22202;DHT22;11266;51.522;6.302;2023-06-05T02:32:55;13.20;99.90
22202;DHT22;11266;51.522;6.302;2023-06-05T02:33:46;13.30;99.90
22202;DHT22;11266;51.522;6.302;2023-06-05T02:34:32;13.20;99.90
22202;DHT22;11266;51.522;6.302;2023-06-05T02:35:18;13.20;99.90
22202;DHT22;11266;51.522;6.302;2023-06-05T02:36:04;13.20;99.90
22202;DHT22;11266;51.522;6.302;2023-06-05T02:36:50;13.20;99.90
22202;DHT22;11266;51.522;6.302;2023-06-05T02:37:36;13.20;99.90
22202;DHT22;11266;51.522;6.302;2023-06-05T02:38:27;13.20;99.90
22202;DHT22;11266;51.522;6.302;2023-06-05T02:39:14;13.20;99.90
22202;DHT22;11266;51.522;6.302;2023-06-05T02:40:00;13.20;99.90
22202;DHT22;11266;51.522;6.302;2023-06-05T02:40:46;13.20;99.90
22202;DHT22;11266;51.522;6.302;2023-06-05T02:41:32;13.20;99.90
22202;DHT22;11266;51.522;6.302;2023-06-05T02:42:17;13.10;99.90
22202;DHT22;11266;51.522;6.302;2023-06-05T02:43:04;13.20;99.90
22202;DHT22;11266;51.522;6.302;2023-06-05T02:43:51;13.20;99.90
22202;DHT22;11266;51.522;6.302;2023-06-05T02:44:36;13.20;99.90
22202;DHT22;11266;51.522;6.302;2023-06-05T02:45:22;13.10;99.90
22202;DHT22;11266;51.522;6.302;2023-06-05T02:46:08;13.10;99.90
22202;DHT22;11266;51.522;6.302;2023-06-05T02:46:54;13.20;99.90
22202;DHT22;11266;51.522;6.302;2023-06-05T02:47:40;13.10;99.90
22202;DHT22;11266;51.522;6.302;2023-06-05T02:48:25;13.10;99.90
22202;DHT22;11266;51.522;6.302;2023-06-05T02:49:11;13.10;99.90
22202;DHT22;11266;51.522;6.302;2023-06-05T02:49:57;13.10;99.90
22202;DHT22;11266;51.522;6.302;2023-06-05T02:50:43;13.00;99.90
22202;DHT22;11266;51.522;6.302;2023-06-05T02:51:29;13.10;99.90
22202;DHT22;11266;51.522;6.302;2023-06-05T02:52:15;13.00;99.90
22202;DHT22;11266;51.522;6.302;2023-06-05T02:53:01;13.00;99.90
22202;DHT22;11266;51.522;6.302;2023-06-05T02:53:46;13.00;99.90
22202;DHT22;11266;51.522;6.302;2023-06-05T02:54:32;13.00;99.90
22202;DHT22;11266;51.522;6.302;2023-06-05T02:55:18;13.00;99.90
22202;DHT22;11266;51.522;6.302;2023-06-05T02:56:04;13.00;99.90
22202;DHT22;11266;51.522;6.302;2023-06-05T02:56:51;13.00;99.90
22202;DHT22;11266;51.522;6.302;2023-06-05T02:57:36;13.00;99.90
22202;DHT22;11266;51.522;6.302;2023-06-05T02:58:26;12.90;99.90
22202;DHT22;11266;51.522;6.302;2023-06-05T02:59:13;13.00;99.90
22202;DHT22;11266;51.522;6.302;2023-06-05T03:00:00;13.00;99.90
22202;DHT22;11266;51.522;6.302;2023-06-05T03:00:56;13.00;99.90
22202;DHT22;11266;51.522;6.302;2023-06-05T03:01:42;12.90;99.90
22202;DHT22;11266;51.522;6.302;2023-06-05T03:02:29;12.90;99.90
22202;DHT22;11266;51.522;6.302;2023-06-05T03:03:14;12.90;99.90
22202;DHT22;11266;51.522;6.302;2023-06-05T03:04:02;12.90;99.90
22202;DHT22;11266;51.522;6.302;2023-06-05T03:04:48;12.80;99.90
22202;DHT22;11266;51.522;6.302;2023-06-05T03:05:38;12.90;99.90
22202;DHT22;11266;51.522;6.302;2023-06-05T03:06:26;12.90;99.90
22202;DHT22;11266;51.522;6.302;2023-06-05T03:07:12;12.90;99.90
22202;DHT22;11266;51.522;6.302;2023-06-05T03:07:58;12.90;99.90
22202;DHT22;11266;51.522;6.302;2023-06-05T03:08:46;12.90;99.90
22202;DHT22;11266;51.522;6.302;2023-06-05T03:09:32;12.90;99.90
22202;DHT22;11266;51.522;6.302;2023-06-05T03:10:18;12.80;99.90
22202;DHT22;11266;51.522;6.302;2023-06-05T03:11:05;12.80;99.90
22202;DHT22;11266;51.522;6.302;2023-06-05T03:11:50;12.80;99.90
22202;DHT22;11266;51.522;6.302;2023-06-05T03:12:36;12.80;99.90
22202;DHT22;11266;51.522;6.302;2023-06-05T03:13:22;12.80;99.90
22202;DHT22;11266;51.522;6.302;2023-06-05T03:14:08;12.70;99.90
22202;DHT22;11266;51.522;6.302;2023-06-05T03:14:54;12.70;99.90
22202;DHT22;11266;51.522;6.302;2023-06-05T03:15:40;12.60;99.90
22202;DHT22;11266;51.522;6.302;2023-06-05T03:16:27;12.60;99.90
22202;DHT22;11266;51.522;6.302;2023-06-05T03:17:18;12.60;99.90
22202;DHT22;11266;51.522;6.302;2023-06-05T03:18:04;12.60;99.90
22202;DHT22;11266;51.522;6.302;2023-06-05T03:18:50;12.50;99.90
22202;DHT22;11266;51.522;6.302;2023-06-05T03:19:36;12.50;99.90
22202;DHT22;11266;51.522;6.302;2023-06-05T03:20:22;12.40;99.90
22202;DHT22;11266;51.522;6.302;2023-06-05T03:21:07;12.40;99.90
22202;DHT22;11266;51.522;6.302;2023-06-05T03:21:55;12.40;99.90
22202;DHT22;11266;51.522;6.302;2023-06-05T03:22:41;12.40;99.90
22202;DHT22;11266;51.522;6.302;2023-06-05T03:23:27;12.40;99.90
22202;DHT22;11266;51.522;6.302;2023-06-05T03:24:14;12.40;99.90
22202;DHT22;11266;51.522;6.302;2023-06-05T03:25:00;12.40;99.90
22202;DHT22;11266;51.522;6.302;2023-06-05T03:25:46;12.40;99.90
22202;DHT22;11266;51.522;6.302;2023-06-05T03:26:35;12.40;99.90
22202;DHT22;11266;51.522;6.302;2023-06-05T03:27:21;12.40;99.90
22202;DHT22;11266;51.522;6.302;2023-06-05T03:28:06;12.40;99.90
22202;DHT22;11266;51.522;6.302;2023-06-05T03:28:52;12.40;99.90
22202;DHT22;11266;51.522;6.302;2023-06-05T03:29:38;12.40;99.90
22202;DHT22;11266;51.522;6.302;2023-06-05T03:30:24;12.40;99.90
22202;DHT22;11266;51.522;6.302;2023-06-05T03:31:10;12.40;99.90
22202;DHT22;11266;51.522;6.302;2023-06-05T03:31:57;12.40;99.90
22202;DHT22;11266;51.522;6.302;2023-06-05T03:32:43;12.40;99.90
22202;DHT22;11266;51.522;6.302;2023-06-05T03:33:29;12.40;99.90
22202;DHT22;11266;51.522;6.302;2023-06-05T03:34:14;12.30;99.90
22202;DHT22;11266;51.522;6.302;2023-06-05T03:35:00;12.40;99.90
22202;DHT22;11266;51.522;6.302;2023-06-05T03:35:46;12.40;99.90
22202;DHT22;11266;51.522;6.302;2023-06-05T03:36:32;12.30;99.90
22202;DHT22;11266;51.522;6.302;2023-06-05T03:37:19;12.40;99.90
22202;DHT22;11266;51.522;6.302;2023-06-05T03:38:05;12.30;99.90
22202;DHT22;11266;51.522;6.302;2023-06-05T03:38:51;12.30;99.90
22202;DHT22;11266;51.522;6.302;2023-06-05T03:39:37;12.40;99.90
22202;DHT22;11266;51.522;6.302;2023-06-05T03:40:23;12.40;99.90
22202;DHT22;11266;51.522;6.302;2023-06-05T03:41:09;12.30;99.90
22202;DHT22;11266;51.522;6.302;2023-06-05T03:41:55;12.30;99.90
22202;DHT22;11266;51.522;6.302;2023-06-05T03:42:40;12.30;99.90
22202;DHT22;11266;51.522;6.302;2023-06-05T03:43:26;12.30;99.90
22202;DHT22;11266;51.522;6.302;2023-06-05T03:44:12;12.30;99.90
22202;DHT22;11266;51.522;6.302;2023-06-05T03:44:58;12.30;99.90
22202;DHT22;11266;51.522;6.302;2023-06-05T03:45:44;12.30;99.90
22202;DHT22;11266;51.522;6.302;2023-06-05T03:46:30;12.30;99.90
22202;DHT22;11266;51.522;6.302;2023-06-05T03:47:16;12.30;99.90
22202;DHT22;11266;51.522;6.302;2023-06-05T03:48:02;12.30;99.90
22202;DHT22;11266;51.522;6.302;2023-06-05T03:48:49;12.30;99.90
22202;DHT22;11266;51.522;6.302;2023-06-05T03:49:34;12.30;99.90
22202;DHT22;11266;51.522;6.302;2023-06-05T03:50:21;12.20;99.90
22202;DHT22;11266;51.522;6.302;2023-06-05T03:51:09;12.30;99.90
22202;DHT22;11266;51.522;6.302;2023-06-05T03:51:55;12.30;99.90
22202;DHT22;11266;51.522;6.302;2023-06-05T03:52:47;12.30;99.90
22202;DHT22;11266;51.522;6.302;2023-06-05T03:53:39;12.30;99.90
22202;DHT22;11266;51.522;6.302;2023-06-05T03:54:25;12.30;99.90
22202;DHT22;11266;51.522;6.302;2023-06-05T03:55:11;12.30;99.90
22202;DHT22;11266;51.522;6.302;2023-06-05T03:55:57;12.40;99.90
22202;DHT22;11266;51.522;6.302;2023-06-05T03:56:45;12.30;99.90
22202;DHT22;11266;51.522;6.302;2023-06-05T03:57:36;12.30;99.90
22202;DHT22;11266;51.522;6.302;2023-06-05T03:58:23;12.30;99.90
22202;DHT22;11266;51.522;6.302;2023-06-05T03:59:09;12.30;99.90
22202;DHT22;11266;51.522;6.302;2023-06-05T04:00:02;12.30;99.90
22202;DHT22;11266;51.522;6.302;2023-06-05T04:00:48;12.30;99.90
22202;DHT22;11266;51.522;6.302;2023-06-05T04:01:37;12.30;99.90
22202;DHT22;11266;51.522;6.302;2023-06-05T04:02:23;12.30;99.90
22202;DHT22;11266;51.522;6.302;2023-06-05T04:03:10;12.30;99.90
22202;DHT22;11266;51.522;6.302;2023-06-05T04:03:59;12.30;99.90
22202;DHT22;11266;51.522;6.302;2023-06-05T04:04:44;12.30;99.90
22202;DHT22;11266;51.522;6.302;2023-06-05T04:05:31;12.30;99.90
22202;DHT22;11266;51.522;6.302;2023-06-05T04:06:17;12.30;99.90
22202;DHT22;11266;51.522;6.302;2023-06-05T04:07:02;12.30;99.90
22202;DHT22;11266;51.522;6.302;2023-06-05T04:07:48;12.40;99.90
22202;DHT22;11266;51.522;6.302;2023-06-05T04:08:34;12.40;99.90
22202;DHT22;11266;51.522;6.302;2023-06-05T04:09:20;12.40;99.90
22202;DHT22;11266;51.522;6.302;2023-06-05T04:10:06;12.40;99.90
22202;DHT22;11266;51.522;6.302;2023-06-05T04:10:53;12.40;99.90
22202;DHT22;11266;51.522;6.302;2023-06-05T04:11:43;12.40;99.90
22202;DHT22;11266;51.522;6.302;2023-06-05T04:12:29;12.50;99.90
22202;DHT22;11266;51.522;6.302;2023-06-05T04:13:14;12.50;99.90
22202;DHT22;11266;51.522;6.302;2023-06-05T04:14:00;12.50;99.90
22202;DHT22;11266;51.522;6.302;2023-06-05T04:14:46;12.50;99.90
22202;DHT22;11266;51.522;6.302;2023-06-05T04:15:32;12.60;99.90
22202;DHT22;11266;51.522;6.302;2023-06-05T04:16:19;12.60;99.90
22202;DHT22;11266;51.522;6.302;2023-06-05T04:17:05;12.60;99.90
22202;DHT22;11266;51.522;6.302;2023-06-05T04:17:50;12.60;99.90
22202;DHT22;11266;51.522;6.302;2023-06-05T04:18:36;12.60;99.90
22202;DHT22;11266;51.522;6.302;2023-06-05T04:19:22;12.60;99.90
22202;DHT22;11266;51.522;6.302;2023-06-05T04:20:08;12.60;99.90
22202;DHT22;11266;51.522;6.302;2023-06-05T04:20:59;12.70;99.90
22202;DHT22;11266;51.522;6.302;2023-06-05T04:21:45;12.60;99.90
22202;DHT22;11266;51.522;6.302;2023-06-05T04:22:30;12.60;99.90
22202;DHT22;11266;51.522;6.302;2023-06-05T04:23:16;12.60;99.90
22202;DHT22;11266;51.522;6.302;2023-06-05T04:24:03;12.70;99.90
22202;DHT22;11266;51.522;6.302;2023-06-05T04:24:55;12.70;99.90
22202;DHT22;11266;51.522;6.302;2023-06-05T04:25:41;12.80;99.90
22202;DHT22;11266;51.522;6.302;2023-06-05T04:26:30;12.80;99.90
22202;DHT22;11266;51.522;6.302;2023-06-05T04:27:16;12.90;99.90
22202;DHT22;11266;51.522;6.302;2023-06-05T04:28:02;12.90;99.90
22202;DHT22;11266;51.522;6.302;2023-06-05T04:28:48;13.00;99.90
22202;DHT22;11266;51.522;6.302;2023-06-05T04:29:36;12.90;99.90
22202;DHT22;11266;51.522;6.302;2023-06-05T04:30:22;13.00;99.90
22202;DHT22;11266;51.522;6.302;2023-06-05T04:31:08;13.00;99.90
22202;DHT22;11266;51.522;6.302;2023-06-05T04:31:54;13.00;99.90
22202;DHT22;11266;51.522;6.302;2023-06-05T04:32:40;13.10;99.90
22202;DHT22;11266;51.522;6.302;2023-06-05T04:33:26;13.10;99.90
22202;DHT22;11266;51.522;6.302;2023-06-05T04:34:12;13.10;99.90
22202;DHT22;11266;51.522;6.302;2023-06-05T04:34:58;13.10;99.90
22202;DHT22;11266;51.522;6.302;2023-06-05T04:35:44;13.10;99.90
22202;DHT22;11266;51.522;6.302;2023-06-05T04:36:29;13.10;99.90
22202;DHT22;11266;51.522;6.302;2023-06-05T04:37:16;13.20;99.90
22202;DHT22;11266;51.522;6.302;2023-06-05T04:38:02;13.20;99.90
22202;DHT22;11266;51.522;6.302;2023-06-05T04:38:48;13.20;99.90
22202;DHT22;11266;51.522;6.302;2023-06-05T04:39:34;13.30;99.90
22202;DHT22;11266;51.522;6.302;2023-06-05T04:40:19;13.30;99.90
22202;DHT22;11266;51.522;6.302;2023-06-05T04:41:06;13.30;99.90
22202;DHT22;11266;51.522;6.302;2023-06-05T04:41:52;13.40;99.90
22202;DHT22;11266;51.522;6.302;2023-06-05T04:42:38;13.40;99.90
22202;DHT22;11266;51.522;6.302;2023-06-05T04:43:24;13.50;99.90
22202;DHT22;11266;51.522;6.302;2023-06-05T04:44:10;13.50;99.90
22202;DHT22;11266;51.522;6.302;2023-06-05T04:44:58;13.50;99.90
22202;DHT22;11266;51.522;6.302;2023-06-05T04:45:44;13.60;99.90
22202;DHT22;11266;51.522;6.302;2023-06-05T04:46:31;13.70;99.90
22202;DHT22;11266;51.522;6.302;2023-06-05T04:47:17;13.70;99.90
22202;DHT22;11266;51.522;6.302;2023-06-05T04:48:03;13.70;99.90
22202;DHT22;11266;51.522;6.302;2023-06-05T04:48:49;13.70;99.90
22202;DHT22;11266;51.522;6.302;2023-06-05T04:49:35;13.80;99.90
22202;DHT22;11266;51.522;6.302;2023-06-05T04:50:26;13.80;99.90
22202;DHT22;11266;51.522;6.302;2023-06-05T04:51:12;13.90;99.90
22202;DHT22;11266;51.522;6.302;2023-06-05T04:51:58;13.90;99.90
22202;DHT22;11266;51.522;6.302;2023-06-05T04:52:44;14.00;99.90
22202;DHT22;11266;51.522;6.302;2023-06-05T04:53:30;14.00;99.90
22202;DHT22;11266;51.522;6.302;2023-06-05T04:54:16;14.10;99.90
22202;DHT22;11266;51.522;6.302;2023-06-05T04:55:02;14.20;99.90
22202;DHT22;11266;51.522;6.302;2023-06-05T04:55:48;14.20;99.90
22202;DHT22;11266;51.522;6.302;2023-06-05T04:56:34;14.30;99.90
22202;DHT22;11266;51.522;6.302;2023-06-05T04:57:20;14.40;99.90
22202;DHT22;11266;51.522;6.302;2023-06-05T04:58:06;14.40;99.90
22202;DHT22;11266;51.522;6.302;2023-06-05T04:58:51;14.50;99.90
22202;DHT22;11266;51.522;6.302;2023-06-05T04:59:39;14.60;99.90
22202;DHT22;11266;51.522;6.302;2023-06-05T05:00:25;14.60;99.90